sensor_id;sensor_type;location;lat;lon;timestamp;P1;durP1;ratioP1;P2;durP2;ratioP2
71395;SDS011;59888;55.814;37.132;2023-08-17T00:00:34;10.00;;;6.13;;
71395;SDS011;59888;55.814;37.132;2023-08-17T00:03:01;8.90;;;6.15;;
71395;SDS011;59888;55.814;37.132;2023-08-17T00:05:27;10.02;;;6.43;;
71395;SDS011;59888;55.814;37.132;2023-08-17T00:07:53;10.75;;;6.53;;
71395;SDS011;59888;55.814;37.132;2023-08-17T00:10:19;10.35;;;6.47;;
71395;SDS011;59888;55.814;37.132;2023-08-17T00:12:45;13.35;;;6.43;;
71395;SDS011;59888;55.814;37.132;2023-08-17T00:15:11;14.57;;;6.30;;
71395;SDS011;59888;55.814;37.132;2023-08-17T00:17:37;9.80;;;6.35;;
71395;SDS011;59888;55.814;37.132;2023-08-17T00:20:04;11.32;;;6.07;;
71395;SDS011;59888;55.814;37.132;2023-08-17T00:22:30;12.40;;;6.95;;
71395;SDS011;59888;55.814;37.132;2023-08-17T00:24:57;10.30;;;6.53;;
71395;SDS011;59888;55.814;37.132;2023-08-17T00:27:23;10.63;;;5.88;;
71395;SDS011;59888;55.814;37.132;2023-08-17T00:29:49;9.27;;;6.15;;
71395;SDS011;59888;55.814;37.132;2023-08-17T00:32:15;11.95;;;6.43;;
71395;SDS011;59888;55.814;37.132;2023-08-17T00:34:41;11.63;;;6.82;;
71395;SDS011;59888;55.814;37.132;2023-08-17T00:37:07;9.60;;;6.20;;
71395;SDS011;59888;55.814;37.132;2023-08-17T00:39:33;11.52;;;6.63;;
71395;SDS011;59888;55.814;37.132;2023-08-17T00:42:00;10.15;;;6.72;;
71395;SDS011;59888;55.814;37.132;2023-08-17T00:44:26;11.02;;;6.55;;
71395;SDS011;59888;55.814;37.132;2023-08-17T00:46:52;11.05;;;7.57;;
71395;SDS011;59888;55.814;37.132;2023-08-17T00:49:18;14.10;;;7.55;;
71395;SDS011;59888;55.814;37.132;2023-08-17T00:51:44;16.27;;;7.35;;
71395;SDS011;59888;55.814;37.132;2023-08-17T00:54:10;11.65;;;6.90;;
71395;SDS011;59888;55.814;37.132;2023-08-17T00:56:37;10.38;;;6.85;;
71395;SDS011;59888;55.814;37.132;2023-08-17T00:59:03;9.15;;;6.30;;
71395;SDS011;59888;55.814;37.132;2023-08-17T01:01:30;9.73;;;6.18;;
71395;SDS011;59888;55.814;37.132;2023-08-17T01:03:58;11.10;;;7.05;;
71395;SDS011;59888;55.814;37.132;2023-08-17T01:06:24;11.50;;;6.78;;
71395;SDS011;59888;55.814;37.132;2023-08-17T01:08:50;11.80;;;6.65;;
71395;SDS011;59888;55.814;37.132;2023-08-17T01:11:41;11.30;;;6.45;;
71395;SDS011;59888;55.814;37.132;2023-08-17T01:14:23;13.73;;;6.57;;
71395;SDS011;59888;55.814;37.132;2023-08-17T01:19:45;13.15;;;7.22;;
71395;SDS011;59888;55.814;37.132;2023-08-17T01:22:12;11.55;;;6.78;;
71395;SDS011;59888;55.814;37.132;2023-08-17T01:24:43;9.85;;;6.35;;
71395;SDS011;59888;55.814;37.132;2023-08-17T01:27:09;9.77;;;7.03;;
71395;SDS011;59888;55.814;37.132;2023-08-17T01:29:35;9.93;;;6.65;;
71395;SDS011;59888;55.814;37.132;2023-08-17T01:34:53;13.70;;;7.22;;
71395;SDS011;59888;55.814;37.132;2023-08-17T01:37:23;10.85;;;7.05;;
71395;SDS011;59888;55.814;37.132;2023-08-17T01:39:55;14.70;;;6.90;;
71395;SDS011;59888;55.814;37.132;2023-08-17T01:42:23;11.18;;;6.40;;
71395;SDS011;59888;55.814;37.132;2023-08-17T01:44:50;12.45;;;6.72;;
71395;SDS011;59888;55.814;37.132;2023-08-17T01:47:20;10.93;;;6.03;;
71395;SDS011;59888;55.814;37.132;2023-08-17T01:49:47;12.05;;;7.43;;
71395;SDS011;59888;55.814;37.132;2023-08-17T01:52:13;17.80;;;6.70;;
71395;SDS011;59888;55.814;37.132;2023-08-17T01:54:40;10.10;;;6.30;;
71395;SDS011;59888;55.814;37.132;2023-08-17T01:57:06;11.25;;;7.03;;
71395;SDS011;59888;55.814;37.132;2023-08-17T01:59:32;11.10;;;6.38;;
71395;SDS011;59888;55.814;37.132;2023-08-17T02:01:59;9.48;;;6.57;;
71395;SDS011;59888;55.814;37.132;2023-08-17T02:04:26;12.02;;;6.35;;
71395;SDS011;59888;55.814;37.132;2023-08-17T02:06:52;10.45;;;6.22;;
71395;SDS011;59888;55.814;37.132;2023-08-17T02:09:18;10.25;;;5.97;;
71395;SDS011;59888;55.814;37.132;2023-08-17T02:11:44;8.15;;;5.63;;
71395;SDS011;59888;55.814;37.132;2023-08-17T02:14:10;9.68;;;5.95;;
71395;SDS011;59888;55.814;37.132;2023-08-17T02:16:37;9.77;;;6.03;;
71395;SDS011;59888;55.814;37.132;2023-08-17T02:19:03;9.90;;;6.20;;
71395;SDS011;59888;55.814;37.132;2023-08-17T02:21:29;10.18;;;6.25;;
71395;SDS011;59888;55.814;37.132;2023-08-17T02:23:55;11.20;;;6.20;;
71395;SDS011;59888;55.814;37.132;2023-08-17T02:26:22;8.90;;;6.05;;
71395;SDS011;59888;55.814;37.132;2023-08-17T02:28:49;10.88;;;6.63;;
71395;SDS011;59888;55.814;37.132;2023-08-17T02:31:15;9.93;;;6.30;;
71395;SDS011;59888;55.814;37.132;2023-08-17T02:33:41;9.13;;;5.88;;
71395;SDS011;59888;55.814;37.132;2023-08-17T02:36:07;8.48;;;6.00;;
71395;SDS011;59888;55.814;37.132;2023-08-17T02:38:33;10.07;;;6.07;;
71395;SDS011;59888;55.814;37.132;2023-08-17T02:41:00;10.35;;;6.45;;
71395;SDS011;59888;55.814;37.132;2023-08-17T02:43:26;10.60;;;6.03;;
71395;SDS011;59888;55.814;37.132;2023-08-17T02:45:52;10.10;;;6.10;;
71395;SDS011;59888;55.814;37.132;2023-08-17T02:48:19;10.63;;;6.20;;
71395;SDS011;59888;55.814;37.132;2023-08-17T02:50:45;10.40;;;6.07;;
71395;SDS011;59888;55.814;37.132;2023-08-17T02:53:11;11.38;;;6.22;;
71395;SDS011;59888;55.814;37.132;2023-08-17T02:55:37;11.55;;;6.35;;
71395;SDS011;59888;55.814;37.132;2023-08-17T02:58:03;10.77;;;6.45;;
71395;SDS011;59888;55.814;37.132;2023-08-17T03:00:30;10.43;;;6.13;;
71395;SDS011;59888;55.814;37.132;2023-08-17T03:02:57;10.02;;;6.50;;
71395;SDS011;59888;55.814;37.132;2023-08-17T03:05:22;11.70;;;6.32;;
71395;SDS011;59888;55.814;37.132;2023-08-17T03:07:49;13.50;;;6.15;;
71395;SDS011;59888;55.814;37.132;2023-08-17T03:10:15;8.45;;;5.85;;
71395;SDS011;59888;55.814;37.132;2023-08-17T03:12:41;8.38;;;6.35;;
71395;SDS011;59888;55.814;37.132;2023-08-17T03:15:07;9.60;;;6.25;;
71395;SDS011;59888;55.814;37.132;2023-08-17T03:17:34;10.98;;;6.35;;
71395;SDS011;59888;55.814;37.132;2023-08-17T03:20:02;12.27;;;6.45;;
71395;SDS011;59888;55.814;37.132;2023-08-17T03:22:31;9.75;;;6.40;;
71395;SDS011;59888;55.814;37.132;2023-08-17T03:24:58;10.23;;;6.55;;
71395;SDS011;59888;55.814;37.132;2023-08-17T03:27:24;12.63;;;6.30;;
71395;SDS011;59888;55.814;37.132;2023-08-17T03:29:51;11.65;;;7.03;;
71395;SDS011;59888;55.814;37.132;2023-08-17T03:32:17;12.40;;;6.55;;
71395;SDS011;59888;55.814;37.132;2023-08-17T03:34:44;11.18;;;6.00;;
71395;SDS011;59888;55.814;37.132;2023-08-17T03:37:11;10.27;;;6.60;;
71395;SDS011;59888;55.814;37.132;2023-08-17T03:39:37;11.25;;;6.53;;
71395;SDS011;59888;55.814;37.132;2023-08-17T03:42:03;12.93;;;6.70;;
71395;SDS011;59888;55.814;37.132;2023-08-17T03:44:30;10.40;;;6.28;;
71395;SDS011;59888;55.814;37.132;2023-08-17T03:46:56;9.93;;;6.13;;
71395;SDS011;59888;55.814;37.132;2023-08-17T03:49:22;13.50;;;7.05;;
71395;SDS011;59888;55.814;37.132;2023-08-17T03:51:48;11.63;;;6.70;;
71395;SDS011;59888;55.814;37.132;2023-08-17T03:54:16;11.73;;;6.85;;
71395;SDS011;59888;55.814;37.132;2023-08-17T03:56:43;9.38;;;6.20;;
71395;SDS011;59888;55.814;37.132;2023-08-17T03:59:09;7.88;;;5.57;;
71395;SDS011;59888;55.814;37.132;2023-08-17T04:01:35;9.70;;;5.97;;
71395;SDS011;59888;55.814;37.132;2023-08-17T04:04:01;8.50;;;5.80;;
71395;SDS011;59888;55.814;37.132;2023-08-17T04:06:28;8.73;;;5.97;;
71395;SDS011;59888;55.814;37.132;2023-08-17T04:08:54;8.68;;;6.10;;
71395;SDS011;59888;55.814;37.132;2023-08-17T04:11:20;7.28;;;5.25;;
71395;SDS011;59888;55.814;37.132;2023-08-17T04:13:47;9.98;;;5.90;;
71395;SDS011;59888;55.814;37.132;2023-08-17T04:16:13;9.88;;;6.22;;
71395;SDS011;59888;55.814;37.132;2023-08-17T04:18:39;10.00;;;6.20;;
71395;SDS011;59888;55.814;37.132;2023-08-17T04:21:06;8.20;;;5.50;;
71395;SDS011;59888;55.814;37.132;2023-08-17T04:23:32;12.88;;;5.75;;
71395;SDS011;59888;55.814;37.132;2023-08-17T04:25:58;10.85;;;5.90;;
71395;SDS011;59888;55.814;37.132;2023-08-17T04:28:24;6.78;;;5.30;;
71395;SDS011;59888;55.814;37.132;2023-08-17T04:30:52;7.20;;;5.65;;
71395;SDS011;59888;55.814;37.132;2023-08-17T04:33:18;8.45;;;5.65;;
71395;SDS011;59888;55.814;37.132;2023-08-17T04:35:46;9.85;;;5.57;;
71395;SDS011;59888;55.814;37.132;2023-08-17T04:38:13;8.43;;;5.55;;
71395;SDS011;59888;55.814;37.132;2023-08-17T04:40:39;7.47;;;5.32;;
71395;SDS011;59888;55.814;37.132;2023-08-17T04:43:07;8.65;;;5.40;;
71395;SDS011;59888;55.814;37.132;2023-08-17T04:45:35;10.77;;;5.45;;
71395;SDS011;59888;55.814;37.132;2023-08-17T04:48:01;8.18;;;4.32;;
71395;SDS011;59888;55.814;37.132;2023-08-17T04:50:28;10.18;;;5.07;;
71395;SDS011;59888;55.814;37.132;2023-08-17T04:52:54;6.78;;;4.72;;
71395;SDS011;59888;55.814;37.132;2023-08-17T04:55:20;9.65;;;4.75;;
71395;SDS011;59888;55.814;37.132;2023-08-17T04:57:48;7.10;;;4.80;;
71395;SDS011;59888;55.814;37.132;2023-08-17T05:00:14;8.82;;;4.97;;
71395;SDS011;59888;55.814;37.132;2023-08-17T05:02:42;7.70;;;4.97;;
71395;SDS011;59888;55.814;37.132;2023-08-17T05:05:09;7.95;;;4.50;;
71395;SDS011;59888;55.814;37.132;2023-08-17T05:07:36;9.82;;;4.50;;
71395;SDS011;59888;55.814;37.132;2023-08-17T05:10:03;8.30;;;4.55;;
71395;SDS011;59888;55.814;37.132;2023-08-17T05:12:32;8.25;;;4.45;;
71395;SDS011;59888;55.814;37.132;2023-08-17T05:14:59;7.25;;;4.05;;
71395;SDS011;59888;55.814;37.132;2023-08-17T05:17:26;6.38;;;4.53;;
71395;SDS011;59888;55.814;37.132;2023-08-17T05:19:52;7.13;;;3.60;;
71395;SDS011;59888;55.814;37.132;2023-08-17T05:22:18;8.05;;;3.72;;
71395;SDS011;59888;55.814;37.132;2023-08-17T05:24:45;5.70;;;3.70;;
71395;SDS011;59888;55.814;37.132;2023-08-17T05:27:11;6.95;;;3.60;;
71395;SDS011;59888;55.814;37.132;2023-08-17T05:29:37;6.82;;;3.90;;
71395;SDS011;59888;55.814;37.132;2023-08-17T05:32:03;5.97;;;3.63;;
71395;SDS011;59888;55.814;37.132;2023-08-17T05:34:30;5.57;;;3.95;;
71395;SDS011;59888;55.814;37.132;2023-08-17T05:36:57;8.30;;;4.20;;
71395;SDS011;59888;55.814;37.132;2023-08-17T05:39:23;5.95;;;3.30;;
71395;SDS011;59888;55.814;37.132;2023-08-17T05:41:49;6.25;;;4.03;;
71395;SDS011;59888;55.814;37.132;2023-08-17T05:44:15;7.32;;;3.95;;
71395;SDS011;59888;55.814;37.132;2023-08-17T05:46:42;5.82;;;3.42;;
71395;SDS011;59888;55.814;37.132;2023-08-17T05:49:09;6.72;;;3.67;;
71395;SDS011;59888;55.814;37.132;2023-08-17T05:51:35;6.95;;;4.13;;
71395;SDS011;59888;55.814;37.132;2023-08-17T05:54:01;8.07;;;3.45;;
71395;SDS011;59888;55.814;37.132;2023-08-17T05:56:27;3.60;;;2.90;;
71395;SDS011;59888;55.814;37.132;2023-08-17T05:58:53;4.72;;;2.90;;
71395;SDS011;59888;55.814;37.132;2023-08-17T06:01:19;5.43;;;3.10;;
71395;SDS011;59888;55.814;37.132;2023-08-17T06:03:46;6.25;;;3.13;;
71395;SDS011;59888;55.814;37.132;2023-08-17T06:06:12;6.57;;;3.20;;
71395;SDS011;59888;55.814;37.132;2023-08-17T06:08:38;6.97;;;2.97;;
71395;SDS011;59888;55.814;37.132;2023-08-17T06:11:04;6.75;;;3.00;;
71395;SDS011;59888;55.814;37.132;2023-08-17T06:13:30;7.25;;;3.25;;
71395;SDS011;59888;55.814;37.132;2023-08-17T06:15:56;4.82;;;3.10;;
71395;SDS011;59888;55.814;37.132;2023-08-17T06:18:22;4.18;;;2.60;;
71395;SDS011;59888;55.814;37.132;2023-08-17T06:20:48;3.70;;;2.97;;
71395;SDS011;59888;55.814;37.132;2023-08-17T06:23:19;3.65;;;2.78;;
71395;SDS011;59888;55.814;37.132;2023-08-17T06:25:46;6.15;;;3.15;;
71395;SDS011;59888;55.814;37.132;2023-08-17T06:28:12;5.25;;;2.83;;
71395;SDS011;59888;55.814;37.132;2023-08-17T06:30:38;5.80;;;3.67;;
71395;SDS011;59888;55.814;37.132;2023-08-17T06:33:05;5.43;;;3.47;;
71395;SDS011;59888;55.814;37.132;2023-08-17T06:35:31;4.28;;;2.50;;
71395;SDS011;59888;55.814;37.132;2023-08-17T06:37:57;4.00;;;2.50;;
71395;SDS011;59888;55.814;37.132;2023-08-17T06:40:24;4.70;;;2.70;;
71395;SDS011;59888;55.814;37.132;2023-08-17T06:42:50;4.18;;;2.78;;
71395;SDS011;59888;55.814;37.132;2023-08-17T06:45:17;4.70;;;2.75;;
71395;SDS011;59888;55.814;37.132;2023-08-17T06:47:44;5.63;;;2.72;;
71395;SDS011;59888;55.814;37.132;2023-08-17T06:50:11;4.28;;;2.83;;
71395;SDS011;59888;55.814;37.132;2023-08-17T06:52:37;3.63;;;2.70;;
71395;SDS011;59888;55.814;37.132;2023-08-17T06:55:04;6.38;;;2.83;;
71395;SDS011;59888;55.814;37.132;2023-08-17T06:57:30;5.63;;;2.80;;
71395;SDS011;59888;55.814;37.132;2023-08-17T06:59:56;5.85;;;2.80;;
71395;SDS011;59888;55.814;37.132;2023-08-17T07:02:23;5.30;;;2.80;;
71395;SDS011;59888;55.814;37.132;2023-08-17T07:04:49;4.30;;;2.80;;
71395;SDS011;59888;55.814;37.132;2023-08-17T07:07:15;7.75;;;3.03;;
71395;SDS011;59888;55.814;37.132;2023-08-17T07:09:41;4.38;;;2.88;;
71395;SDS011;59888;55.814;37.132;2023-08-17T07:12:07;4.30;;;2.67;;
71395;SDS011;59888;55.814;37.132;2023-08-17T07:14:33;5.82;;;2.92;;
71395;SDS011;59888;55.814;37.132;2023-08-17T07:16:59;6.18;;;2.40;;
71395;SDS011;59888;55.814;37.132;2023-08-17T07:19:25;4.78;;;2.63;;
71395;SDS011;59888;55.814;37.132;2023-08-17T07:21:51;4.57;;;2.50;;
71395;SDS011;59888;55.814;37.132;2023-08-17T07:24:19;4.95;;;2.70;;
71395;SDS011;59888;55.814;37.132;2023-08-17T07:26:45;6.72;;;2.65;;
71395;SDS011;59888;55.814;37.132;2023-08-17T07:29:10;3.95;;;2.50;;
71395;SDS011;59888;55.814;37.132;2023-08-17T07:31:37;4.05;;;2.45;;
71395;SDS011;59888;55.814;37.132;2023-08-17T07:34:07;4.72;;;2.67;;
71395;SDS011;59888;55.814;37.132;2023-08-17T07:36:33;5.18;;;2.50;;
71395;SDS011;59888;55.814;37.132;2023-08-17T07:39:00;3.88;;;2.25;;
71395;SDS011;59888;55.814;37.132;2023-08-17T07:41:26;4.03;;;2.40;;
71395;SDS011;59888;55.814;37.132;2023-08-17T07:43:52;4.80;;;2.42;;
71395;SDS011;59888;55.814;37.132;2023-08-17T07:46:18;3.15;;;2.20;;
71395;SDS011;59888;55.814;37.132;2023-08-17T07:48:44;3.30;;;2.22;;
71395;SDS011;59888;55.814;37.132;2023-08-17T07:51:10;3.50;;;2.20;;
71395;SDS011;59888;55.814;37.132;2023-08-17T07:53:36;3.78;;;2.17;;
71395;SDS011;59888;55.814;37.132;2023-08-17T07:56:02;3.85;;;2.20;;
71395;SDS011;59888;55.814;37.132;2023-08-17T07:58:28;4.50;;;2.22;;
71395;SDS011;59888;55.814;37.132;2023-08-17T08:00:54;3.38;;;2.42;;
71395;SDS011;59888;55.814;37.132;2023-08-17T08:03:20;3.50;;;2.40;;
71395;SDS011;59888;55.814;37.132;2023-08-17T08:05:46;4.45;;;2.30;;
71395;SDS011;59888;55.814;37.132;2023-08-17T08:08:12;4.13;;;2.28;;
71395;SDS011;59888;55.814;37.132;2023-08-17T08:10:40;3.90;;;2.20;;
71395;SDS011;59888;55.814;37.132;2023-08-17T08:13:06;3.42;;;2.20;;
71395;SDS011;59888;55.814;37.132;2023-08-17T08:15:33;2.80;;;2.15;;
71395;SDS011;59888;55.814;37.132;2023-08-17T08:17:59;3.58;;;2.13;;
71395;SDS011;59888;55.814;37.132;2023-08-17T08:20:25;3.30;;;2.22;;
71395;SDS011;59888;55.814;37.132;2023-08-17T08:22:51;3.90;;;2.25;;
71395;SDS011;59888;55.814;37.132;2023-08-17T08:25:17;4.50;;;2.20;;
71395;SDS011;59888;55.814;37.132;2023-08-17T08:27:44;2.97;;;2.00;;
71395;SDS011;59888;55.814;37.132;2023-08-17T08:30:10;4.50;;;2.30;;
71395;SDS011;59888;55.814;37.132;2023-08-17T08:32:36;5.70;;;2.50;;
71395;SDS011;59888;55.814;37.132;2023-08-17T08:35:03;4.47;;;2.20;;
71395;SDS011;59888;55.814;37.132;2023-08-17T08:37:30;5.00;;;2.65;;
71395;SDS011;59888;55.814;37.132;2023-08-17T08:39:55;4.13;;;2.30;;
71395;SDS011;59888;55.814;37.132;2023-08-17T08:42:22;4.13;;;2.28;;
71395;SDS011;59888;55.814;37.132;2023-08-17T08:44:49;4.05;;;2.42;;
71395;SDS011;59888;55.814;37.132;2023-08-17T08:47:16;3.35;;;2.08;;
71395;SDS011;59888;55.814;37.132;2023-08-17T08:49:50;3.72;;;2.30;;
71395;SDS011;59888;55.814;37.132;2023-08-17T08:52:22;3.15;;;2.20;;
71395;SDS011;59888;55.814;37.132;2023-08-17T08:54:51;4.43;;;2.33;;
71395;SDS011;59888;55.814;37.132;2023-08-17T08:57:19;3.42;;;2.40;;
71395;SDS011;59888;55.814;37.132;2023-08-17T08:59:46;5.47;;;2.35;;
71395;SDS011;59888;55.814;37.132;2023-08-17T09:02:14;3.17;;;2.17;;
71395;SDS011;59888;55.814;37.132;2023-08-17T09:04:42;5.88;;;2.15;;
71395;SDS011;59888;55.814;37.132;2023-08-17T09:07:11;5.13;;;2.45;;
71395;SDS011;59888;55.814;37.132;2023-08-17T09:09:39;5.47;;;2.40;;
71395;SDS011;59888;55.814;37.132;2023-08-17T09:12:08;4.40;;;2.20;;
71395;SDS011;59888;55.814;37.132;2023-08-17T09:14:35;4.72;;;2.08;;
71395;SDS011;59888;55.814;37.132;2023-08-17T09:17:03;2.80;;;2.00;;
71395;SDS011;59888;55.814;37.132;2023-08-17T09:19:33;4.72;;;2.30;;
71395;SDS011;59888;55.814;37.132;2023-08-17T09:22:00;6.70;;;2.08;;
71395;SDS011;59888;55.814;37.132;2023-08-17T09:24:33;5.00;;;2.25;;
71395;SDS011;59888;55.814;37.132;2023-08-17T09:27:03;4.82;;;2.30;;
71395;SDS011;59888;55.814;37.132;2023-08-17T09:29:30;7.20;;;2.30;;
71395;SDS011;59888;55.814;37.132;2023-08-17T09:32:04;4.75;;;2.05;;
71395;SDS011;59888;55.814;37.132;2023-08-17T09:34:31;5.65;;;2.17;;
71395;SDS011;59888;55.814;37.132;2023-08-17T09:37:04;3.42;;;2.28;;
71395;SDS011;59888;55.814;37.132;2023-08-17T09:39:31;3.42;;;2.30;;
71395;SDS011;59888;55.814;37.132;2023-08-17T09:41:57;6.03;;;2.22;;
71395;SDS011;59888;55.814;37.132;2023-08-17T09:44:25;3.70;;;2.03;;
71395;SDS011;59888;55.814;37.132;2023-08-17T09:46:51;6.07;;;2.00;;
71395;SDS011;59888;55.814;37.132;2023-08-17T09:49:20;3.88;;;2.25;;
71395;SDS011;59888;55.814;37.132;2023-08-17T09:51:49;3.10;;;2.00;;
71395;SDS011;59888;55.814;37.132;2023-08-17T09:54:20;4.10;;;2.13;;
71395;SDS011;59888;55.814;37.132;2023-08-17T09:56:50;4.25;;;2.15;;
71395;SDS011;59888;55.814;37.132;2023-08-17T09:59:17;4.68;;;2.30;;
71395;SDS011;59888;55.814;37.132;2023-08-17T10:01:43;4.70;;;1.88;;
71395;SDS011;59888;55.814;37.132;2023-08-17T10:04:14;3.78;;;1.80;;
71395;SDS011;59888;55.814;37.132;2023-08-17T10:06:43;5.90;;;2.35;;
71395;SDS011;59888;55.814;37.132;2023-08-17T10:09:10;3.00;;;2.15;;
71395;SDS011;59888;55.814;37.132;2023-08-17T10:11:39;3.95;;;1.88;;
71395;SDS011;59888;55.814;37.132;2023-08-17T10:14:08;4.30;;;2.20;;
71395;SDS011;59888;55.814;37.132;2023-08-17T10:16:42;3.92;;;2.22;;
71395;SDS011;59888;55.814;37.132;2023-08-17T10:24:38;5.43;;;2.25;;
71395;SDS011;59888;55.814;37.132;2023-08-17T10:27:06;4.20;;;1.83;;
71395;SDS011;59888;55.814;37.132;2023-08-17T10:29:32;4.47;;;2.13;;
71395;SDS011;59888;55.814;37.132;2023-08-17T10:31:59;3.45;;;2.10;;
71395;SDS011;59888;55.814;37.132;2023-08-17T10:34:27;3.63;;;1.98;;
71395;SDS011;59888;55.814;37.132;2023-08-17T10:36:54;3.38;;;1.80;;
71395;SDS011;59888;55.814;37.132;2023-08-17T10:39:27;3.35;;;2.17;;
71395;SDS011;59888;55.814;37.132;2023-08-17T10:41:54;3.22;;;1.80;;
71395;SDS011;59888;55.814;37.132;2023-08-17T10:52:32;2.83;;;2.03;;
71395;SDS011;59888;55.814;37.132;2023-08-17T10:55:01;7.60;;;2.10;;
71395;SDS011;59888;55.814;37.132;2023-08-17T10:57:36;2.33;;;1.75;;
71395;SDS011;59888;55.814;37.132;2023-08-17T11:00:22;3.90;;;2.00;;
71395;SDS011;59888;55.814;37.132;2023-08-17T11:03:03;5.55;;;2.30;;
71395;SDS011;59888;55.814;37.132;2023-08-17T11:08:19;4.63;;;1.90;;
71395;SDS011;59888;55.814;37.132;2023-08-17T11:10:48;3.70;;;1.92;;
71395;SDS011;59888;55.814;37.132;2023-08-17T11:13:28;4.20;;;2.20;;
71395;SDS011;59888;55.814;37.132;2023-08-17T11:15:57;4.07;;;2.08;;
71395;SDS011;59888;55.814;37.132;2023-08-17T11:18:24;3.75;;;1.92;;
71395;SDS011;59888;55.814;37.132;2023-08-17T11:20:51;3.90;;;2.10;;
71395;SDS011;59888;55.814;37.132;2023-08-17T11:23:18;3.20;;;2.00;;
71395;SDS011;59888;55.814;37.132;2023-08-17T11:25:45;3.80;;;2.10;;
71395;SDS011;59888;55.814;37.132;2023-08-17T11:28:11;3.92;;;2.10;;
71395;SDS011;59888;55.814;37.132;2023-08-17T11:30:39;3.00;;;2.05;;
71395;SDS011;59888;55.814;37.132;2023-08-17T11:33:06;2.58;;;1.77;;
71395;SDS011;59888;55.814;37.132;2023-08-17T11:35:33;3.60;;;1.88;;
71395;SDS011;59888;55.814;37.132;2023-08-17T11:37:59;3.15;;;2.00;;
71395;SDS011;59888;55.814;37.132;2023-08-17T11:40:26;3.97;;;1.98;;
71395;SDS011;59888;55.814;37.132;2023-08-17T11:42:52;3.25;;;2.10;;
71395;SDS011;59888;55.814;37.132;2023-08-17T11:45:19;3.50;;;2.10;;
71395;SDS011;59888;55.814;37.132;2023-08-17T11:47:46;2.80;;;2.00;;
71395;SDS011;59888;55.814;37.132;2023-08-17T11:50:13;2.92;;;2.03;;
71395;SDS011;59888;55.814;37.132;2023-08-17T11:52:40;5.70;;;2.05;;
71395;SDS011;59888;55.814;37.132;2023-08-17T11:55:06;4.20;;;2.10;;
71395;SDS011;59888;55.814;37.132;2023-08-17T11:57:35;2.58;;;2.08;;
71395;SDS011;59888;55.814;37.132;2023-08-17T12:00:03;3.50;;;2.10;;
71395;SDS011;59888;55.814;37.132;2023-08-17T12:02:32;3.47;;;2.20;;
71395;SDS011;59888;55.814;37.132;2023-08-17T12:05:03;3.95;;;2.20;;
71395;SDS011;59888;55.814;37.132;2023-08-17T12:07:32;3.30;;;2.00;;
71395;SDS011;59888;55.814;37.132;2023-08-17T12:09:58;5.65;;;2.10;;
71395;SDS011;59888;55.814;37.132;2023-08-17T12:12:25;5.20;;;2.00;;
71395;SDS011;59888;55.814;37.132;2023-08-17T12:14:53;3.78;;;2.00;;
71395;SDS011;59888;55.814;37.132;2023-08-17T12:17:19;3.95;;;2.50;;
71395;SDS011;59888;55.814;37.132;2023-08-17T12:19:49;5.65;;;2.33;;
71395;SDS011;59888;55.814;37.132;2023-08-17T12:22:19;3.13;;;2.60;;
71395;SDS011;59888;55.814;37.132;2023-08-17T12:24:49;3.50;;;2.20;;
71395;SDS011;59888;55.814;37.132;2023-08-17T12:27:15;5.25;;;2.20;;
71395;SDS011;59888;55.814;37.132;2023-08-17T12:29:47;3.97;;;2.15;;
71395;SDS011;59888;55.814;37.132;2023-08-17T12:32:17;2.90;;;2.00;;
71395;SDS011;59888;55.814;37.132;2023-08-17T12:34:44;5.35;;;2.30;;
71395;SDS011;59888;55.814;37.132;2023-08-17T12:37:11;4.00;;;2.20;;
71395;SDS011;59888;55.814;37.132;2023-08-17T12:39:38;3.08;;;2.10;;
71395;SDS011;59888;55.814;37.132;2023-08-17T12:42:04;4.32;;;2.30;;
71395;SDS011;59888;55.814;37.132;2023-08-17T12:44:31;2.70;;;2.10;;
71395;SDS011;59888;55.814;37.132;2023-08-17T12:46:57;3.45;;;2.00;;
71395;SDS011;59888;55.814;37.132;2023-08-17T12:49:24;5.88;;;2.20;;
71395;SDS011;59888;55.814;37.132;2023-08-17T12:51:50;2.63;;;2.20;;
71395;SDS011;59888;55.814;37.132;2023-08-17T12:54:17;8.15;;;1.88;;
71395;SDS011;59888;55.814;37.132;2023-08-17T12:56:44;3.95;;;1.92;;
71395;SDS011;59888;55.814;37.132;2023-08-17T12:59:10;3.47;;;2.00;;
71395;SDS011;59888;55.814;37.132;2023-08-17T13:01:37;3.17;;;2.00;;
71395;SDS011;59888;55.814;37.132;2023-08-17T13:04:04;5.20;;;2.05;;
71395;SDS011;59888;55.814;37.132;2023-08-17T13:06:31;3.25;;;1.98;;
71395;SDS011;59888;55.814;37.132;2023-08-17T13:08:57;3.60;;;1.95;;
71395;SDS011;59888;55.814;37.132;2023-08-17T13:11:23;2.15;;;1.90;;
71395;SDS011;59888;55.814;37.132;2023-08-17T13:13:49;4.45;;;1.63;;
71395;SDS011;59888;55.814;37.132;2023-08-17T13:16:15;2.50;;;1.98;;
71395;SDS011;59888;55.814;37.132;2023-08-17T13:18:41;3.22;;;1.92;;
71395;SDS011;59888;55.814;37.132;2023-08-17T13:21:07;2.38;;;1.60;;
71395;SDS011;59888;55.814;37.132;2023-08-17T13:23:34;2.47;;;1.80;;
71395;SDS011;59888;55.814;37.132;2023-08-17T13:26:00;3.17;;;1.75;;
71395;SDS011;59888;55.814;37.132;2023-08-17T13:28:26;2.33;;;1.60;;
71395;SDS011;59888;55.814;37.132;2023-08-17T13:30:52;3.05;;;1.67;;
71395;SDS011;59888;55.814;37.132;2023-08-17T13:33:18;3.60;;;1.50;;
71395;SDS011;59888;55.814;37.132;2023-08-17T13:35:44;3.22;;;1.50;;
71395;SDS011;59888;55.814;37.132;2023-08-17T13:38:10;3.75;;;1.52;;
71395;SDS011;59888;55.814;37.132;2023-08-17T13:40:36;5.13;;;1.80;;
71395;SDS011;59888;55.814;37.132;2023-08-17T13:43:04;5.13;;;1.77;;
71395;SDS011;59888;55.814;37.132;2023-08-17T13:45:38;2.03;;;1.42;;
71395;SDS011;59888;55.814;37.132;2023-08-17T13:48:06;2.30;;;1.50;;
71395;SDS011;59888;55.814;37.132;2023-08-17T13:50:33;2.75;;;1.80;;
71395;SDS011;59888;55.814;37.132;2023-08-17T13:53:00;2.35;;;1.65;;
71395;SDS011;59888;55.814;37.132;2023-08-17T13:55:26;2.28;;;1.60;;
71395;SDS011;59888;55.814;37.132;2023-08-17T13:57:53;4.32;;;1.60;;
71395;SDS011;59888;55.814;37.132;2023-08-17T14:00:24;2.70;;;1.33;;
71395;SDS011;59888;55.814;37.132;2023-08-17T14:02:51;2.25;;;1.50;;
71395;SDS011;59888;55.814;37.132;2023-08-17T14:05:17;4.15;;;1.58;;
71395;SDS011;59888;55.814;37.132;2023-08-17T14:07:42;3.72;;;1.60;;
71395;SDS011;59888;55.814;37.132;2023-08-17T14:10:09;3.13;;;1.52;;
71395;SDS011;59888;55.814;37.132;2023-08-17T14:12:35;2.75;;;1.50;;
71395;SDS011;59888;55.814;37.132;2023-08-17T14:15:01;3.20;;;1.50;;
71395;SDS011;59888;55.814;37.132;2023-08-17T14:17:31;4.07;;;1.50;;
71395;SDS011;59888;55.814;37.132;2023-08-17T14:19:58;2.85;;;1.67;;
71395;SDS011;59888;55.814;37.132;2023-08-17T14:22:24;2.22;;;1.60;;
71395;SDS011;59888;55.814;37.132;2023-08-17T14:24:51;2.53;;;1.60;;
71395;SDS011;59888;55.814;37.132;2023-08-17T14:27:17;2.08;;;1.70;;
71395;SDS011;59888;55.814;37.132;2023-08-17T14:29:43;4.63;;;1.90;;
71395;SDS011;59888;55.814;37.132;2023-08-17T14:32:09;4.28;;;1.58;;
71395;SDS011;59888;55.814;37.132;2023-08-17T14:34:35;3.13;;;1.55;;
71395;SDS011;59888;55.814;37.132;2023-08-17T14:37:01;2.97;;;1.80;;
71395;SDS011;59888;55.814;37.132;2023-08-17T14:39:27;2.40;;;1.45;;
71395;SDS011;59888;55.814;37.132;2023-08-17T14:41:53;3.90;;;1.80;;
71395;SDS011;59888;55.814;37.132;2023-08-17T14:44:19;3.70;;;1.50;;
71395;SDS011;59888;55.814;37.132;2023-08-17T14:46:46;2.35;;;1.75;;
71395;SDS011;59888;55.814;37.132;2023-08-17T14:49:12;3.35;;;1.63;;
71395;SDS011;59888;55.814;37.132;2023-08-17T14:51:38;1.98;;;1.42;;